createdAt,value
2018-01-15T00:01:00.949Z,86.99
2018-01-15T00:03:29.973Z,86.63
2018-01-15T00:05:58.261Z,87.04
2018-01-15T00:08:27.334Z,87.50
2018-01-15T00:10:55.602Z,86.75
2018-01-15T00:13:23.863Z,86.80
2018-01-15T00:15:52.149Z,86.87
2018-01-15T00:18:20.404Z,87.20
2018-01-15T00:20:49.427Z,87.41
2018-01-15T00:23:18.476Z,87.74
2018-01-15T00:25:46.727Z,87.26
2018-01-15T00:28:14.997Z,87.59
2018-01-15T00:30:44.032Z,87.58
2018-01-15T00:33:12.356Z,87.72
2018-01-15T00:35:40.664Z,88.54
2018-01-15T00:38:09.819Z,87.78
2018-01-15T00:40:38.124Z,87.87
2018-01-15T00:43:06.461Z,88.09
2018-01-15T00:45:35.498Z,88.42
2018-01-15T00:48:03.764Z,88.28
2018-01-15T00:50:32.794Z,88.59
2018-01-15T00:53:01.084Z,88.64
2018-01-15T00:55:30.108Z,88.36
2018-01-15T00:57:58.428Z,88.34
2018-01-15T01:00:26.700Z,88.68
2018-01-15T01:02:54.975Z,88.37
2018-01-15T01:05:23.237Z,88.46
2018-01-15T01:07:52.271Z,88.82
2018-01-15T01:10:20.528Z,88.72
2018-01-15T01:12:50.082Z,88.57
2018-01-15T01:15:18.347Z,88.31
2018-01-15T01:17:46.634Z,88.06
2018-01-15T01:20:15.667Z,88.17
2018-01-15T01:22:43.951Z,88.43
2018-01-15T01:25:12.236Z,88.92
2018-01-15T01:27:40.577Z,88.96
2018-01-15T01:30:08.906Z,89.45
2018-01-15T01:32:37.813Z,89.31
2018-01-15T01:35:06.067Z,88.97
2018-01-15T01:37:34.347Z,89.05
2018-01-15T01:40:02.617Z,89.47
2018-01-15T01:42:30.893Z,89.09
2018-01-15T01:44:59.176Z,89.45
2018-01-15T01:47:27.483Z,89.12
2018-01-15T01:49:55.694Z,89.30
2018-01-15T01:52:23.947Z,89.56
2018-01-15T01:54:52.220Z,89.69
2018-01-15T01:57:20.491Z,89.87
2018-01-15T01:59:49.523Z,90.09
2018-01-15T02:02:17.794Z,90.03
2018-01-15T02:04:46.815Z,90.56
2018-01-15T02:07:15.067Z,90.68
2018-01-15T02:09:44.577Z,90.56
2018-01-15T02:12:12.853Z,90.31
2018-01-15T02:14:41.239Z,90.60
2018-01-15T02:17:09.592Z,90.93
2018-01-15T02:19:37.885Z,90.91
2018-01-15T02:22:06.164Z,90.95
2018-01-15T02:24:35.283Z,91.47
2018-01-15T02:27:03.540Z,91.55
2018-01-15T02:29:32.584Z,92.03
2018-01-15T02:32:00.840Z,91.80
2018-01-15T02:34:29.943Z,91.78
2018-01-15T02:36:58.976Z,91.40
2018-01-15T02:39:27.296Z,91.59
2018-01-15T02:41:55.573Z,91.93
2018-01-15T02:44:23.842Z,91.91
2018-01-15T02:46:52.108Z,92.22
2018-01-15T02:49:21.154Z,92.27
2018-01-15T02:51:49.416Z,92.25
2018-01-15T02:54:18.451Z,91.91
2018-01-15T02:56:46.704Z,91.90
2018-01-15T02:59:15.751Z,91.74
2018-01-15T03:01:44.095Z,91.92
2018-01-15T03:04:12.466Z,91.76
2018-01-15T03:06:41.611Z,91.65
2018-01-15T03:09:10.000Z,91.90
2018-01-15T03:11:38.524Z,92.20
2018-01-15T03:14:07.638Z,92.40
2018-01-15T03:16:35.928Z,92.77
2018-01-15T03:19:04.202Z,92.71
2018-01-15T03:21:32.450Z,92.22
2018-01-15T03:24:02.485Z,92.13
2018-01-15T03:26:30.747Z,92.01
2018-01-15T03:28:59.024Z,92.37
2018-01-15T03:31:27.343Z,92.48
2018-01-15T03:33:56.418Z,92.67
2018-01-15T03:36:24.695Z,92.51
2018-01-15T03:38:52.958Z,92.39
2018-01-15T03:41:21.983Z,92.11
2018-01-15T03:43:50.266Z,92.36
2018-01-15T03:46:18.531Z,91.89
2018-01-15T03:48:47.566Z,91.02
2018-01-15T03:51:15.833Z,90.69
2018-01-15T03:53:44.867Z,90.41
2018-01-15T03:56:13.186Z,89.95
2018-01-15T03:58:41.538Z,89.90
2018-01-15T04:01:09.887Z,89.62
2018-01-15T04:03:38.999Z,89.15
2018-01-15T04:06:08.139Z,89.52
2018-01-15T04:08:36.450Z,89.43
2018-01-15T04:11:04.742Z,89.21
2018-01-15T04:13:33.003Z,88.81
2018-01-15T04:16:01.280Z,89.37
2018-01-15T04:18:30.291Z,89.13
2018-01-15T04:20:59.309Z,88.73
2018-01-15T04:23:27.566Z,88.95
2018-01-15T04:25:55.835Z,88.83
2018-01-15T04:28:24.091Z,88.08
2018-01-15T04:30:52.363Z,88.34
2018-01-15T04:33:20.619Z,88.24
2018-01-15T04:35:48.888Z,88.29
2018-01-15T04:38:17.136Z,87.74
2018-01-15T04:40:45.400Z,87.64
2018-01-15T04:43:14.415Z,87.91
2018-01-15T04:45:43.465Z,87.47
2018-01-15T04:48:11.736Z,87.50
2018-01-15T04:50:41.037Z,87.56
2018-01-15T04:53:09.351Z,87.45
2018-01-15T04:55:37.708Z,87.47
2018-01-15T04:58:06.001Z,87.08
2018-01-15T05:00:35.019Z,87.14
2018-01-15T05:03:03.291Z,86.84
2018-01-15T05:05:32.303Z,86.51
2018-01-15T05:08:00.607Z,86.49
2018-01-15T05:10:28.869Z,86.53
2018-01-15T05:12:57.933Z,85.72
2018-01-15T05:15:26.219Z,85.83
2018-01-15T05:17:54.483Z,85.90
2018-01-15T05:20:22.730Z,85.70
2018-01-15T05:22:51.759Z,85.72
2018-01-15T05:25:20.878Z,85.34
2018-01-15T05:27:49.135Z,84.91
2018-01-15T05:30:18.158Z,84.74
2018-01-15T05:32:47.183Z,84.40
2018-01-15T05:35:15.940Z,84.64
2018-01-15T05:37:44.213Z,84.81
2018-01-15T05:40:12.475Z,84.18
2018-01-15T05:42:40.790Z,84.31
2018-01-15T05:45:09.061Z,83.98
2018-01-15T05:47:37.351Z,83.96
2018-01-15T05:50:05.975Z,84.18
2018-01-15T05:52:34.240Z,84.43
2018-01-15T05:55:02.521Z,83.91
2018-01-15T05:57:30.791Z,84.18
2018-01-15T05:59:59.051Z,84.49
2018-01-15T06:02:27.482Z,84.90
2018-01-15T06:04:55.728Z,84.97
2018-01-15T06:07:24.772Z,84.75
2018-01-15T06:09:53.028Z,84.67
2018-01-15T06:12:21.299Z,84.40
2018-01-15T06:14:49.550Z,84.76
2018-01-15T06:17:17.820Z,84.75
2018-01-15T06:19:46.079Z,83.39
2018-01-15T06:22:14.666Z,84.44
2018-01-15T06:24:42.955Z,83.72
2018-01-15T06:27:11.277Z,84.21
2018-01-15T06:29:40.368Z,84.93
2018-01-15T06:32:08.691Z,85.41
2018-01-15T06:34:36.998Z,85.83
2018-01-15T06:37:05.272Z,86.20
2018-01-15T06:39:33.543Z,86.11
2018-01-15T06:42:02.563Z,85.52
2018-01-15T06:44:30.955Z,85.35
2018-01-15T06:46:59.203Z,85.07
2018-01-15T06:49:27.506Z,84.56
2018-01-15T06:51:55.776Z,84.41
2018-01-15T06:54:24.025Z,85.13
2018-01-15T06:56:52.271Z,85.42
2018-01-15T06:59:21.367Z,85.41
2018-01-15T07:01:49.619Z,85.83
2018-01-15T07:04:17.884Z,85.68
2018-01-15T07:06:46.153Z,85.69
2018-01-15T07:09:15.177Z,85.66
2018-01-15T07:11:43.427Z,85.73
2018-01-15T07:14:11.700Z,84.88
2018-01-15T07:16:40.000Z,84.04
2018-01-15T07:19:08.284Z,84.23
2018-01-15T07:21:37.995Z,84.54
2018-01-15T07:24:06.275Z,84.33
2018-01-15T07:26:34.536Z,84.61
2018-01-15T07:29:02.815Z,84.08
2018-01-15T07:31:31.835Z,82.81
2018-01-15T07:34:00.121Z,82.40
2018-01-15T07:36:29.135Z,81.88
2018-01-15T07:38:57.443Z,81.89
2018-01-15T07:41:25.703Z,81.10
2018-01-15T07:43:53.987Z,81.37
2018-01-15T07:46:22.244Z,81.95
2018-01-15T07:48:50.536Z,82.15
2018-01-15T07:51:18.781Z,80.64
2018-01-15T07:53:47.048Z,81.17
2018-01-15T07:56:16.074Z,81.43
2018-01-15T07:58:45.574Z,81.42
2018-01-15T08:01:14.605Z,81.58
2018-01-15T08:03:42.877Z,81.80
2018-01-15T08:06:11.161Z,80.98
2018-01-15T08:08:40.294Z,80.08
2018-01-15T08:11:08.711Z,80.58
2018-01-15T08:13:37.078Z,79.69
2018-01-15T08:16:05.357Z,79.80
2018-01-15T08:18:33.595Z,79.89
2018-01-15T08:21:02.636Z,79.53
2018-01-15T08:23:30.910Z,79.75
2018-01-15T08:25:59.933Z,78.50
2018-01-15T08:28:28.205Z,77.53
2018-01-15T08:30:57.256Z,76.81
2018-01-15T08:33:25.535Z,76.24
2018-01-15T08:35:53.793Z,75.68
2018-01-15T08:38:22.798Z,73.89
2018-01-15T08:40:51.824Z,73.61
2018-01-15T08:43:20.122Z,72.74
2018-01-15T08:45:48.387Z,72.02
2018-01-15T08:48:17.411Z,69.74
2018-01-15T08:50:45.672Z,69.76
2018-01-15T08:53:14.690Z,69.66
2018-01-15T08:55:43.738Z,68.80
2018-01-15T08:58:12.000Z,67.87
2018-01-15T09:00:40.308Z,66.65
2018-01-15T09:03:08.603Z,67.39
2018-01-15T09:05:36.871Z,67.76
2018-01-15T09:08:05.124Z,66.43
2018-01-15T09:10:34.155Z,65.69
2018-01-15T09:13:02.411Z,63.98
2018-01-15T09:15:30.688Z,65.05
2018-01-15T09:17:58.948Z,64.14
2018-01-15T09:20:27.988Z,63.87
2018-01-15T09:22:56.278Z,64.60
2018-01-15T09:25:24.523Z,65.02
2018-01-15T09:27:52.778Z,64.62
2018-01-15T09:30:21.799Z,65.41
2018-01-15T09:32:50.056Z,65.23
2018-01-15T09:35:18.300Z,65.04
2018-01-15T09:37:46.576Z,63.56
2018-01-15T09:40:14.823Z,63.63
2018-01-15T09:42:43.105Z,64.89
2018-01-15T09:45:11.376Z,63.86
2018-01-15T09:47:40.419Z,64.20
2018-01-15T09:50:08.694Z,64.59
2018-01-15T09:52:36.975Z,63.78
2018-01-15T09:55:05.219Z,63.72
2018-01-15T09:57:33.478Z,63.24
2018-01-15T10:00:02.608Z,63.77
2018-01-15T10:02:31.621Z,63.49
2018-01-15T10:04:59.882Z,61.17
2018-01-15T10:07:28.916Z,62.25
2018-01-15T10:09:57.199Z,62.23
2018-01-15T10:12:25.443Z,61.69
2018-01-15T10:14:53.720Z,61.54
2018-01-15T10:17:21.964Z,61.66
2018-01-15T10:19:51.003Z,61.36
2018-01-15T10:22:19.247Z,61.19
2018-01-15T10:24:48.287Z,61.73
2018-01-15T10:27:16.580Z,60.84
2018-01-15T10:29:44.835Z,61.34
2018-01-15T10:32:13.979Z,62.21
2018-01-15T10:34:42.272Z,61.33
2018-01-15T10:37:10.556Z,61.77
2018-01-15T10:39:38.926Z,61.02
2018-01-15T10:42:07.208Z,61.07
2018-01-15T10:44:35.468Z,60.51
2018-01-15T10:47:06.290Z,61.24
2018-01-15T10:49:34.579Z,61.28
2018-01-15T10:52:02.847Z,61.04
2018-01-15T10:54:31.092Z,60.13
2018-01-15T10:56:59.363Z,59.60
2018-01-15T10:59:27.626Z,60.48
2018-01-15T11:01:56.694Z,59.50
2018-01-15T11:04:25.711Z,59.72
2018-01-15T11:06:54.003Z,59.41
2018-01-15T11:09:22.263Z,60.28
2018-01-15T11:11:50.551Z,59.10
2018-01-15T11:14:18.775Z,60.82
2018-01-15T11:16:47.046Z,60.10
2018-01-15T11:19:15.363Z,60.50
2018-01-15T11:21:43.607Z,60.87
2018-01-15T11:24:12.680Z,61.58
2018-01-15T11:26:40.947Z,62.32
2018-01-15T11:29:09.325Z,62.25
2018-01-15T11:31:37.618Z,63.18
2018-01-15T11:34:05.875Z,63.06
2018-01-15T11:36:34.880Z,62.53
2018-01-15T11:39:03.902Z,62.58
2018-01-15T11:41:32.157Z,62.91
2018-01-15T11:44:00.425Z,63.48
2018-01-15T11:46:28.684Z,62.85
2018-01-15T11:48:56.962Z,63.58
2018-01-15T11:51:25.215Z,61.67
2018-01-15T11:53:53.495Z,64.07
2018-01-15T11:56:21.739Z,61.58
2018-01-15T11:58:50.002Z,61.91
2018-01-15T12:01:18.271Z,64.25
2018-01-15T12:03:46.551Z,61.71
2018-01-15T12:06:14.815Z,61.53
2018-01-15T12:08:43.120Z,60.60
2018-01-15T12:11:11.336Z,61.02
2018-01-15T12:13:39.611Z,61.09
2018-01-15T12:16:09.374Z,60.74
2018-01-15T12:18:37.683Z,59.52
2018-01-15T12:21:06.725Z,60.41
2018-01-15T12:23:35.006Z,59.43
2018-01-15T12:26:03.276Z,61.15
2018-01-15T12:28:31.551Z,60.40
2018-01-15T12:30:59.811Z,60.57
2018-01-15T12:33:28.069Z,60.36
2018-01-15T12:35:56.339Z,59.77
2018-01-15T12:38:24.614Z,59.99
2018-01-15T12:40:52.915Z,58.75
2018-01-15T12:43:21.160Z,59.11
2018-01-15T12:45:50.178Z,59.22
2018-01-15T12:48:18.433Z,59.43
2018-01-15T12:50:46.724Z,59.84
2018-01-15T12:53:14.982Z,60.17
2018-01-15T12:55:43.264Z,60.24
2018-01-15T12:58:11.503Z,59.69
2018-01-15T13:00:40.534Z,59.78
2018-01-15T13:03:08.791Z,59.69
2018-01-15T13:05:49.745Z,60.22
2018-01-15T13:08:35.514Z,60.50
2018-01-15T13:11:03.806Z,60.46
2018-01-15T13:13:32.086Z,60.37
2018-01-15T13:16:00.373Z,60.73
2018-01-15T13:18:29.404Z,59.95
2018-01-15T13:20:57.672Z,60.66
2018-01-15T13:23:25.936Z,60.78
2018-01-15T13:25:54.191Z,59.91
2018-01-15T13:28:22.443Z,60.09
2018-01-15T13:30:50.704Z,60.28
2018-01-15T13:33:18.959Z,60.91
2018-01-15T13:35:47.244Z,60.68
2018-01-15T13:38:15.532Z,61.98
2018-01-15T13:40:43.835Z,62.24
2018-01-15T13:43:12.079Z,62.15
2018-01-15T13:45:40.339Z,61.78
2018-01-15T13:48:08.590Z,62.28
2018-01-15T13:50:36.899Z,61.85
2018-01-15T13:53:05.155Z,61.61
2018-01-15T13:55:34.263Z,61.69
2018-01-15T13:58:02.628Z,61.58
2018-01-15T14:00:30.892Z,62.49
2018-01-15T14:02:59.162Z,62.89
2018-01-15T14:05:27.433Z,63.11
2018-01-15T14:07:55.720Z,62.88
2018-01-15T14:10:23.973Z,63.37
2018-01-15T14:12:52.236Z,62.77
2018-01-15T14:15:21.246Z,62.02
2018-01-15T14:17:50.277Z,62.35
2018-01-15T14:20:18.518Z,64.46
2018-01-15T14:22:46.776Z,64.06
2018-01-15T14:25:15.041Z,64.64
2018-01-15T14:27:43.303Z,64.78
2018-01-15T14:30:11.570Z,64.99
2018-01-15T14:32:41.343Z,65.14
2018-01-15T14:35:09.612Z,65.41
2018-01-15T14:37:38.692Z,65.26
2018-01-15T14:40:06.936Z,65.86
2018-01-15T14:42:35.210Z,65.32
2018-01-15T14:45:03.487Z,66.26
2018-01-15T14:47:32.515Z,65.95
2018-01-15T14:50:00.803Z,66.66
2018-01-15T14:52:29.823Z,66.65
2018-01-15T14:54:58.115Z,66.56
2018-01-15T14:57:26.379Z,66.00
2018-01-15T14:59:55.395Z,65.69
2018-01-15T15:02:23.672Z,65.50
2018-01-15T15:04:52.679Z,66.10
2018-01-15T15:07:21.703Z,65.48
2018-01-15T15:09:49.967Z,65.47
2018-01-15T15:12:19.004Z,65.32
2018-01-15T15:14:47.280Z,65.20
2018-01-15T15:17:15.756Z,65.23
2018-01-15T15:19:43.939Z,65.57
2018-01-15T15:22:12.967Z,66.64
2018-01-15T15:24:41.224Z,66.70
2018-01-15T15:27:09.500Z,66.60
2018-01-15T15:29:37.746Z,66.96
2018-01-15T15:32:06.034Z,67.04
2018-01-15T15:34:35.095Z,66.98
2018-01-15T15:37:03.373Z,67.23
2018-01-15T15:39:31.617Z,67.81
2018-01-15T15:41:59.871Z,67.92
2018-01-15T15:44:28.126Z,68.23
2018-01-15T15:46:56.376Z,68.02
2018-01-15T15:49:24.640Z,68.31
2018-01-15T15:51:53.659Z,68.04
2018-01-15T15:54:22.713Z,68.70
2018-01-15T15:56:50.967Z,69.02
2018-01-15T15:59:19.292Z,69.26
2018-01-15T16:01:47.587Z,69.75
2018-01-15T16:04:15.852Z,70.21
2018-01-15T16:06:44.108Z,70.04
2018-01-15T16:09:13.228Z,70.37
2018-01-15T16:11:41.496Z,70.49
2018-01-15T16:14:10.561Z,70.52
2018-01-15T16:16:38.813Z,70.19
2018-01-15T16:19:07.086Z,70.95
2018-01-15T16:21:36.208Z,70.79
2018-01-15T16:24:04.972Z,70.42
2018-01-15T16:26:33.224Z,70.44
2018-01-15T16:29:01.471Z,70.60
2018-01-15T16:31:30.460Z,71.01
2018-01-15T16:33:58.705Z,70.83
2018-01-15T16:36:26.985Z,70.08
2018-01-15T16:38:55.269Z,70.41
2018-01-15T16:41:23.539Z,69.58
2018-01-15T16:43:52.565Z,68.87
2018-01-15T16:46:21.943Z,68.79
2018-01-15T16:48:50.215Z,68.99
2018-01-15T16:51:18.484Z,68.82
2018-01-15T16:53:46.761Z,68.42
2018-01-15T16:56:15.015Z,67.72
2018-01-15T16:58:43.274Z,67.39
2018-01-15T17:01:11.520Z,67.34
2018-01-15T17:03:39.791Z,66.55
2018-01-15T17:06:08.850Z,66.36
2018-01-15T17:08:37.120Z,66.24
2018-01-15T17:11:05.386Z,65.96
2018-01-15T17:13:33.655Z,66.24
2018-01-15T17:16:02.693Z,65.70
2018-01-15T17:18:30.963Z,65.51
2018-01-15T17:20:59.236Z,65.36
2018-01-15T17:23:28.246Z,65.33
2018-01-15T17:25:57.284Z,65.00
2018-01-15T17:28:25.535Z,65.08
2018-01-15T17:30:54.565Z,64.17
2018-01-15T17:33:22.814Z,64.46
2018-01-15T17:35:51.079Z,64.69
2018-01-15T17:38:19.358Z,64.85
2018-01-15T17:40:47.708Z,65.14
2018-01-15T17:43:16.788Z,64.77
2018-01-15T17:45:45.078Z,65.51
2018-01-15T17:48:13.323Z,65.60
2018-01-15T17:50:41.594Z,65.54
2018-01-15T17:53:09.872Z,65.20
2018-01-15T17:55:38.173Z,65.39
2018-01-15T17:58:06.427Z,65.19
2018-01-15T18:00:34.746Z,65.47
2018-01-15T18:03:02.989Z,64.62
2018-01-15T18:05:31.251Z,65.12
2018-01-15T18:07:59.490Z,65.92
2018-01-15T18:10:28.522Z,65.05
2018-01-15T18:12:56.777Z,65.57
2018-01-15T18:15:25.844Z,65.44
2018-01-15T18:17:54.100Z,65.96
2018-01-15T18:20:22.373Z,66.35
2018-01-15T18:22:51.414Z,67.30
2018-01-15T18:25:19.674Z,67.82
2018-01-15T18:27:48.698Z,67.84
2018-01-15T18:30:17.135Z,68.43
2018-01-15T18:32:45.398Z,68.28
2018-01-15T18:35:13.649Z,69.64
2018-01-15T18:37:42.715Z,69.42
2018-01-15T18:40:11.100Z,69.49
2018-01-15T18:42:39.386Z,71.38
2018-01-15T18:45:07.651Z,72.15
2018-01-15T18:47:35.913Z,73.01
2018-01-15T18:50:05.375Z,74.09
2018-01-15T18:52:33.655Z,75.33
2018-01-15T18:55:01.911Z,76.77
2018-01-15T18:57:31.028Z,77.66
2018-01-15T19:00:00.118Z,79.33
2018-01-15T19:02:29.199Z,80.85
2018-01-15T19:04:57.455Z,81.47
2018-01-15T19:07:25.728Z,81.98
2018-01-15T19:09:54.020Z,82.58
2018-01-15T19:12:22.306Z,82.80
2018-01-15T19:14:50.550Z,83.52
2018-01-15T19:17:18.838Z,84.09
2018-01-15T19:19:47.143Z,83.86
2018-01-15T19:22:16.217Z,85.38
2018-01-15T19:24:44.479Z,86.91
2018-01-15T19:27:12.823Z,86.82
2018-01-15T19:29:41.790Z,87.04
2018-01-15T19:32:10.115Z,86.31
2018-01-15T19:34:43.942Z,85.99
2018-01-15T19:40:10.385Z,88.27
2018-01-15T19:42:38.690Z,88.33
2018-01-15T19:45:12.383Z,89.16
2018-01-15T19:47:46.256Z,88.92
2018-01-15T19:50:20.964Z,89.69
2018-01-15T19:52:54.915Z,89.98
2018-01-15T19:55:28.633Z,89.90
2018-01-15T20:01:08.631Z,90.05
2018-01-15T20:03:42.501Z,91.21
2018-01-15T20:06:16.411Z,91.04
2018-01-15T20:08:50.171Z,91.03
2018-01-15T20:11:18.423Z,91.11
2018-01-15T20:13:46.689Z,91.17
2018-01-15T20:16:15.789Z,91.36
2018-01-15T20:18:44.912Z,91.12
2018-01-15T20:21:13.172Z,92.00
2018-01-15T20:23:41.446Z,91.73
2018-01-15T20:26:09.741Z,91.69
2018-01-15T20:28:38.079Z,92.40
2018-01-15T20:31:06.370Z,92.14
2018-01-15T20:33:34.680Z,91.94
2018-01-15T20:36:02.915Z,92.10
2018-01-15T20:38:32.047Z,91.30
2018-01-15T20:41:00.375Z,91.96
2018-01-15T20:43:28.763Z,91.74
2018-01-15T20:45:57.192Z,92.08
2018-01-15T20:48:25.496Z,92.35
2018-01-15T20:50:54.558Z,92.21
2018-01-15T20:53:22.871Z,91.82
2018-01-15T20:55:51.166Z,92.19
2018-01-15T20:58:19.485Z,92.24
2018-01-15T21:00:48.537Z,92.30
2018-01-15T21:03:16.878Z,92.62
2018-01-15T21:05:45.896Z,91.94
2018-01-15T21:08:14.999Z,91.44
2018-01-15T21:10:43.296Z,91.44
2018-01-15T21:13:11.624Z,92.35
2018-01-15T21:15:39.890Z,92.77
2018-01-15T21:18:08.163Z,91.99
2018-01-15T21:20:36.514Z,91.68
2018-01-15T21:23:04.758Z,92.52
2018-01-15T21:25:33.045Z,92.67
2018-01-15T21:28:01.294Z,92.49
2018-01-15T21:30:30.365Z,93.08
2018-01-15T21:32:58.674Z,92.87
2018-01-15T21:35:26.999Z,92.87
2018-01-15T21:37:55.996Z,92.20
2018-01-15T21:40:25.074Z,92.92
2018-01-15T21:42:53.379Z,91.80
2018-01-15T21:45:21.692Z,92.81
2018-01-15T21:47:50.011Z,91.72
2018-01-15T21:50:18.320Z,91.40
2018-01-15T21:52:46.579Z,92.53
2018-01-15T21:55:14.940Z,92.28
2018-01-15T21:57:44.008Z,92.60
2018-01-15T22:00:12.277Z,92.24
2018-01-15T22:02:40.523Z,92.68
2018-01-15T22:05:10.171Z,93.02
2018-01-15T22:07:38.493Z,92.58
2018-01-15T22:10:06.810Z,92.07
2018-01-15T22:12:35.181Z,91.45
2018-01-15T22:15:04.273Z,91.81
2018-01-15T22:17:32.680Z,90.88
2018-01-15T22:20:01.045Z,91.04
2018-01-15T22:22:29.318Z,91.36
2018-01-15T22:24:57.760Z,91.27
2018-01-15T22:27:26.644Z,90.04
2018-01-15T22:29:55.779Z,90.59
2018-01-15T22:32:24.384Z,90.92
2018-01-15T22:34:52.933Z,91.21
2018-01-15T22:37:22.142Z,91.63
2018-01-15T22:39:51.484Z,91.35
2018-01-15T22:42:21.638Z,90.44
2018-01-15T22:44:50.011Z,90.97
2018-01-15T22:47:19.075Z,91.56
2018-01-15T22:49:48.836Z,92.09
2018-01-15T22:52:17.425Z,92.08
2018-01-15T22:54:46.623Z,92.70
2018-01-15T22:57:15.638Z,92.48
2018-01-15T22:59:44.688Z,92.93
2018-01-15T23:02:12.928Z,92.55
2018-01-15T23:04:42.142Z,92.18
2018-01-15T23:07:11.154Z,91.95
2018-01-15T23:09:40.256Z,92.01
2018-01-15T23:12:09.280Z,92.18
2018-01-15T23:14:37.589Z,92.64
2018-01-15T23:17:05.868Z,92.97
2018-01-15T23:19:34.184Z,93.27
2018-01-15T23:22:02.752Z,93.32
2018-01-15T23:24:31.017Z,93.18
2018-01-15T23:27:00.041Z,93.49
2018-01-15T23:29:28.284Z,93.49
2018-01-15T23:31:56.562Z,93.86
2018-01-15T23:34:24.798Z,94.33
2018-01-15T23:36:53.055Z,94.54
2018-01-15T23:39:21.313Z,94.40
2018-01-15T23:41:49.571Z,93.74
2018-01-15T23:44:17.832Z,94.01
2018-01-15T23:46:46.105Z,93.71
2018-01-15T23:49:14.419Z,94.43
2018-01-15T23:51:42.804Z,93.96
2018-01-15T23:54:11.034Z,93.75
2018-01-15T23:56:39.296Z,94.20
2018-01-15T23:59:07.547Z,92.35
